Time;durP1;ratioP1;P1;durP2;ratioP2;P2;SDS_P1;SDS_P2;PMS_P1;PMS_P2;Temp;Humidity;BMP_temperature;BMP_pressure;BME280_temperature;BME280_humidity;BME280_pressure;Samples;Min_cycle;Max_cycle;Signal;HPM_P1;HPM_P2
2021/05/19 00:01:59;;;;;;;6.05;2.10;;;14.20;99.90;;;;;;5074786;28;20125;-75
2021/05/19 00:04:25;;;;;;;5.93;1.30;;;14.20;99.90;;;;;;5062957;28;20035;-75
2021/05/19 00:06:51;;;;;;;4.78;3.33;;;14.20;99.90;;;;;;5074445;28;20035;-75
2021/05/19 00:09:17;;;;;;;5.47;1.17;;;14.20;99.90;;;;;;5079513;28;20039;-74
2021/05/19 00:11:45;;;;;;;4.60;2.53;;;14.30;99.90;;;;;;5068194;28;20423;-75
2021/05/19 00:14:13;;;;;;;4.20;1.55;;;14.30;99.90;;;;;;5058468;28;20056;-75
2021/05/19 00:16:38;;;;;;;6.18;1.15;;;14.20;99.90;;;;;;5072024;28;20079;-75
2021/05/19 00:19:04;;;;;;;6.95;1.45;;;14.20;99.90;;;;;;5080096;28;20031;-75
2021/05/19 00:21:31;;;;;;;5.80;1.85;;;14.20;99.90;;;;;;5074809;28;20028;-75
2021/05/19 00:23:57;;;;;;;4.72;1.60;;;14.20;99.90;;;;;;5056250;28;20433;-75
2021/05/19 00:26:24;;;;;;;5.57;1.92;;;14.30;99.90;;;;;;5054004;28;20025;-75
2021/05/19 00:28:53;;;;;;;6.13;1.73;;;14.30;99.90;;;;;;5080190;28;20029;-75
2021/05/19 00:31:21;;;;;;;6.55;1.73;;;14.30;99.90;;;;;;5066226;28;20028;-75
2021/05/19 00:33:47;;;;;;;7.90;1.98;;;14.10;99.90;;;;;;5055974;28;20017;-75
2021/05/19 00:36:13;;;;;;;4.80;1.60;;;13.90;99.90;;;;;;5074663;28;20027;-75
2021/05/19 00:38:39;;;;;;;15.30;2.97;;;13.80;99.90;;;;;;5053620;28;20482;-75
2021/05/19 00:41:08;;;;;;;6.72;2.08;;;13.70;99.90;;;;;;5074273;28;20414;-74
2021/05/19 00:43:34;;;;;;;7.20;1.77;;;13.70;99.90;;;;;;5074385;28;20429;-74
2021/05/19 00:46:00;;;;;;;4.13;2.05;;;13.60;99.90;;;;;;5053186;28;20119;-75
2021/05/19 00:48:26;;;;;;;6.70;2.00;;;13.60;99.90;;;;;;5083276;28;20448;-75
2021/05/19 00:50:51;;;;;;;10.88;1.98;;;13.60;99.90;;;;;;5070234;28;20020;-75
2021/05/19 00:53:17;;;;;;;7.35;1.42;;;13.70;99.90;;;;;;5071035;28;20028;-74
2021/05/19 00:55:43;;;;;;;5.03;1.73;;;13.60;99.90;;;;;;5079495;28;20219;-76
2021/05/19 00:58:09;;;;;;;5.65;1.90;;;13.60;99.90;;;;;;5081570;28;20078;-74
2021/05/19 01:00:36;;;;;;;3.72;2.03;;;13.50;99.90;;;;;;5077582;28;20029;-75
2021/05/19 01:03:02;;;;;;;7.38;1.90;;;13.50;99.90;;;;;;5074285;28;20017;-74
2021/05/19 01:10:45;;;;;;;8.63;2.35;;;13.30;99.90;;;;;;5067168;28;20044;-74
2021/05/19 01:13:13;;;;;;;11.52;1.95;;;13.20;99.90;;;;;;5051650;28;20028;-75
2021/05/19 01:15:40;;;;;;;11.57;1.60;;;13.20;99.90;;;;;;5063677;28;20098;-75
2021/05/19 01:18:08;;;;;;;2.75;1.42;;;13.10;99.90;;;;;;5070753;28;20380;-74
2021/05/19 01:20:37;;;;;;;10.15;2.00;;;13.00;99.90;;;;;;5069159;28;20017;-74
2021/05/19 01:23:06;;;;;;;8.90;2.03;;;13.00;99.90;;;;;;5067494;28;20094;-74
2021/05/19 01:25:36;;;;;;;10.82;2.15;;;13.00;99.90;;;;;;5071363;28;20486;-74
2021/05/19 01:28:04;;;;;;;7.90;3.38;;;13.00;99.90;;;;;;5078229;28;20055;-73
2021/05/19 01:30:32;;;;;;;5.15;1.67;;;12.80;99.90;;;;;;5070481;28;20100;-74
2021/05/19 01:32:58;;;;;;;5.78;1.60;;;12.60;99.90;;;;;;5071018;28;20029;-74
2021/05/19 01:35:24;;;;;;;7.05;1.58;;;12.60;99.90;;;;;;5070585;28;20039;-76
2021/05/19 01:37:50;;;;;;;11.40;1.67;;;12.70;99.90;;;;;;5071238;28;20061;-76
2021/05/19 01:40:19;;;;;;;6.30;2.08;;;12.80;99.90;;;;;;5053604;28;20048;-75
2021/05/19 01:42:46;;;;;;;5.18;1.45;;;12.80;99.90;;;;;;5059148;28;20471;-75
2021/05/19 01:45:15;;;;;;;4.25;1.98;;;12.80;99.90;;;;;;5055516;28;20109;-76
2021/05/19 01:47:49;;;;;;;7.25;1.48;;;12.80;99.90;;;;;;5058164;28;20253;-75
2021/05/19 01:50:23;;;;;;;8.27;1.45;;;12.80;99.90;;;;;;5065099;28;20032;-76
2021/05/19 01:52:53;;;;;;;8.25;2.33;;;12.80;99.90;;;;;;5046809;28;20029;-76
2021/05/19 01:55:19;;;;;;;2.30;1.42;;;12.90;99.90;;;;;;5055161;28;20029;-75
2021/05/19 01:57:47;;;;;;;1.40;1.25;;;12.90;99.90;;;;;;5087492;28;20028;-75
2021/05/19 02:00:14;;;;;;;5.35;1.77;;;13.00;99.90;;;;;;5056199;28;20036;-75
2021/05/19 02:02:41;;;;;;;2.88;1.65;;;13.00;99.90;;;;;;5073606;28;20485;-76
2021/05/19 02:05:10;;;;;;;15.27;3.00;;;13.10;99.90;;;;;;5071755;28;20040;-76
2021/05/19 02:07:37;;;;;;;5.20;2.05;;;13.20;99.90;;;;;;5064379;28;20094;-76
2021/05/19 02:10:10;;;;;;;4.93;2.22;;;13.10;99.90;;;;;;5072230;28;20056;-76
2021/05/19 02:12:37;;;;;;;3.70;1.67;;;13.10;99.90;;;;;;5071176;28;20118;-76
2021/05/19 02:15:04;;;;;;;6.65;2.47;;;13.10;99.90;;;;;;5073521;28;20056;-75
2021/05/19 02:17:30;;;;;;;10.88;1.50;;;13.10;99.90;;;;;;5057308;28;20028;-76
2021/05/19 02:20:10;;;;;;;3.25;1.58;;;13.10;99.90;;;;;;5053232;28;20390;-75
2021/05/19 02:22:36;;;;;;;7.68;1.90;;;13.10;99.90;;;;;;5058647;28;20056;-76
2021/05/19 02:25:04;;;;;;;3.28;1.67;;;13.10;99.90;;;;;;5048805;28;20039;-75
2021/05/19 02:27:30;;;;;;;6.88;1.63;;;13.10;99.90;;;;;;5060059;28;20044;-76
2021/05/19 02:29:56;;;;;;;4.18;1.50;;;13.10;99.90;;;;;;5068879;28;20052;-75
2021/05/19 02:32:22;;;;;;;5.65;1.75;;;13.10;99.90;;;;;;5049144;28;20038;-75
2021/05/19 02:34:49;;;;;;;5.22;3.20;;;13.10;99.90;;;;;;5062948;28;20075;-75
2021/05/19 02:37:15;;;;;;;2.03;1.00;;;13.10;99.90;;;;;;5074089;28;20023;-77
2021/05/19 02:39:41;;;;;;;3.72;1.65;;;13.00;99.90;;;;;;5079319;28;20029;-75
2021/05/19 02:42:07;;;;;;;2.75;1.60;;;13.00;99.90;;;;;;5077342;28;20101;-74
2021/05/19 02:44:33;;;;;;;6.43;1.55;;;12.90;99.90;;;;;;5072460;28;20076;-75
2021/05/19 02:46:59;;;;;;;6.68;1.50;;;12.90;99.90;;;;;;5054594;28;20039;-75
2021/05/19 02:49:25;;;;;;;2.35;0.98;;;12.90;99.90;;;;;;5067805;28;20029;-75
2021/05/19 02:51:51;;;;;;;4.80;1.52;;;12.80;99.90;;;;;;5070754;28;20443;-76
2021/05/19 02:54:17;;;;;;;2.03;1.02;;;12.80;99.90;;;;;;5075026;28;20021;-75
2021/05/19 02:56:43;;;;;;;6.07;1.48;;;12.70;99.90;;;;;;5067740;28;20024;-75
2021/05/19 02:59:09;;;;;;;3.90;1.20;;;12.60;99.90;;;;;;5075861;28;20028;-76
2021/05/19 03:01:35;;;;;;;1.80;0.80;;;12.60;99.90;;;;;;5070470;28;20021;-76
2021/05/19 03:04:01;;;;;;;3.20;0.90;;;12.60;99.90;;;;;;5075725;28;20107;-75
2021/05/19 03:06:27;;;;;;;1.45;0.55;;;12.50;99.90;;;;;;5074009;28;20471;-76
2021/05/19 03:08:52;;;;;;;4.03;1.05;;;12.60;99.90;;;;;;5056030;28;20025;-76
2021/05/19 03:11:19;;;;;;;5.88;1.05;;;12.60;99.90;;;;;;5058408;28;20535;-76
2021/05/19 03:13:45;;;;;;;0.65;0.65;;;12.60;99.90;;;;;;5081402;28;20028;-76
2021/05/19 03:16:11;;;;;;;2.50;0.63;;;12.50;99.90;;;;;;5078812;28;20036;-76
2021/05/19 03:18:37;;;;;;;1.48;0.60;;;12.50;99.90;;;;;;5076906;28;20436;-75
2021/05/19 03:21:03;;;;;;;1.58;0.70;;;12.40;99.90;;;;;;5057927;28;20020;-75
2021/05/19 03:23:29;;;;;;;1.10;0.52;;;12.40;99.90;;;;;;5080688;28;20032;-75
2021/05/19 03:25:56;;;;;;;3.13;0.70;;;12.40;99.90;;;;;;5062040;28;20552;-75
2021/05/19 03:28:22;;;;;;;0.90;0.50;;;12.40;99.90;;;;;;5081542;28;20028;-75
2021/05/19 03:30:49;;;;;;;1.40;0.52;;;12.40;99.90;;;;;;5077760;28;20070;-74
2021/05/19 03:33:15;;;;;;;2.90;0.55;;;12.40;99.90;;;;;;5090956;28;20023;-75
2021/05/19 03:35:41;;;;;;;0.40;0.40;;;12.40;99.90;;;;;;5072950;28;20017;-74
2021/05/19 03:38:06;;;;;;;0.60;0.40;;;12.40;99.90;;;;;;5088947;28;20063;-75
2021/05/19 03:40:32;;;;;;;1.15;0.52;;;12.50;99.90;;;;;;5076496;28;20052;-75
2021/05/19 03:42:58;;;;;;;0.77;0.50;;;12.40;99.90;;;;;;5073788;28;20120;-74
2021/05/19 03:45:25;;;;;;;1.33;0.38;;;12.40;99.90;;;;;;5064375;28;20040;-75
2021/05/19 03:47:53;;;;;;;0.30;0.30;;;12.40;99.90;;;;;;5072256;28;20126;-74
2021/05/19 03:50:21;;;;;;;3.15;0.55;;;12.40;99.90;;;;;;5084748;28;20031;-76
2021/05/19 03:52:47;;;;;;;0.77;0.52;;;12.30;99.90;;;;;;5071708;28;20024;-74
2021/05/19 03:55:14;;;;;;;0.50;0.50;;;12.30;99.90;;;;;;5063800;28;20025;-74
2021/05/19 03:57:40;;;;;;;1.20;0.65;;;12.30;99.90;;;;;;5048564;28;20025;-74
2021/05/19 04:00:19;;;;;;;2.05;1.17;;;12.40;99.90;;;;;;5079376;28;20028;-74
2021/05/19 04:02:49;;;;;;;0.43;0.35;;;12.40;99.90;;;;;;5078487;28;20093;-74
2021/05/19 04:05:19;;;;;;;1.15;0.65;;;12.40;99.90;;;;;;5050508;28;20513;-74
2021/05/19 04:07:48;;;;;;;0.80;0.70;;;12.40;99.90;;;;;;5058443;28;20494;-75
2021/05/19 04:10:13;;;;;;;2.38;0.50;;;12.40;99.90;;;;;;5070276;28;20038;-74
2021/05/19 04:12:39;;;;;;;1.15;0.50;;;12.40;99.90;;;;;;5065066;28;20095;-74
2021/05/19 04:15:07;;;;;;;1.67;0.70;;;12.40;99.90;;;;;;5062575;28;20032;-75
2021/05/19 04:17:33;;;;;;;0.88;0.43;;;12.30;99.90;;;;;;5058316;28;20548;-73
2021/05/19 04:19:59;;;;;;;0.70;0.55;;;12.30;99.90;;;;;;5063543;28;20040;-73
2021/05/19 04:22:25;;;;;;;0.43;0.20;;;12.30;99.90;;;;;;5075531;28;20063;-74
2021/05/19 04:24:51;;;;;;;4.13;0.35;;;12.30;99.90;;;;;;5084962;28;20058;-74
2021/05/19 04:27:16;;;;;;;3.20;0.40;;;12.30;99.90;;;;;;5071537;28;20017;-73
2021/05/19 04:29:42;;;;;;;0.80;0.50;;;12.30;99.90;;;;;;5077351;28;20047;-74
2021/05/19 04:32:10;;;;;;;0.32;0.30;;;12.20;99.90;;;;;;5076477;28;20020;-74
2021/05/19 04:34:38;;;;;;;0.65;0.35;;;12.10;99.90;;;;;;5058461;28;20020;-74
2021/05/19 04:37:07;;;;;;;0.80;0.40;;;12.10;99.90;;;;;;5072655;28;20024;-74
2021/05/19 04:39:33;;;;;;;3.20;0.20;;;12.20;99.90;;;;;;5071171;28;20028;-74
2021/05/19 04:41:59;;;;;;;0.77;0.30;;;12.20;99.90;;;;;;5056450;28;20055;-75
2021/05/19 04:44:25;;;;;;;0.70;0.40;;;12.20;99.90;;;;;;5068652;28;20559;-74
2021/05/19 04:46:51;;;;;;;1.15;0.30;;;12.20;99.90;;;;;;5073790;28;20055;-74
2021/05/19 04:49:18;;;;;;;0.40;0.20;;;12.10;99.90;;;;;;5067625;28;20036;-74
2021/05/19 04:51:44;;;;;;;0.20;0.10;;;12.10;99.90;;;;;;5050794;28;20040;-73
2021/05/19 04:54:10;;;;;;;0.52;0.20;;;12.00;99.90;;;;;;5088644;28;20020;-73
2021/05/19 04:56:36;;;;;;;0.20;0.20;;;12.00;99.90;;;;;;5063690;28;20386;-73
2021/05/19 04:59:04;;;;;;;3.70;0.50;;;12.10;99.90;;;;;;5055032;28;20037;-73
2021/05/19 05:01:30;;;;;;;0.30;0.20;;;12.00;99.90;;;;;;5079848;28;20485;-73
2021/05/19 05:03:56;;;;;;;0.30;0.30;;;12.00;99.90;;;;;;5060216;28;20034;-74
2021/05/19 05:06:22;;;;;;;0.70;0.25;;;12.10;99.90;;;;;;5072938;28;20497;-73
2021/05/19 05:08:47;;;;;;;0.50;0.20;;;12.00;99.90;;;;;;5070476;28;20372;-74
2021/05/19 05:11:14;;;;;;;2.33;0.22;;;12.00;99.90;;;;;;5072600;28;20077;-75
2021/05/19 05:13:46;;;;;;;0.40;0.40;;;12.00;99.90;;;;;;5079386;28;20008;-74
2021/05/19 05:16:14;;;;;;;0.32;0.30;;;12.00;99.90;;;;;;5065450;28;20054;-74
2021/05/19 05:18:41;;;;;;;0.20;0.20;;;12.00;99.90;;;;;;5056429;28;20723;-74
2021/05/19 05:21:08;;;;;;;5.43;0.50;;;11.90;99.90;;;;;;5079451;28;20082;-74
2021/05/19 05:23:34;;;;;;;0.28;0.20;;;11.80;99.90;;;;;;5060290;28;20028;-75
2021/05/19 05:26:01;;;;;;;0.38;0.25;;;11.80;99.90;;;;;;5061157;28;20025;-73
2021/05/19 05:28:27;;;;;;;0.20;0.20;;;11.70;99.90;;;;;;5065074;28;20419;-74
2021/05/19 05:30:54;;;;;;;1.38;0.20;;;11.60;99.90;;;;;;5069606;28;20102;-74
2021/05/19 05:33:21;;;;;;;0.10;0.10;;;11.60;99.90;;;;;;5069401;28;20067;-74
2021/05/19 05:35:47;;;;;;;0.20;0.20;;;11.60;99.90;;;;;;5077272;28;20069;-74
2021/05/19 05:38:12;;;;;;;0.10;0.10;;;11.50;99.90;;;;;;5052185;28;20024;-73
2021/05/19 05:40:38;;;;;;;0.00;0.00;;;11.50;99.90;;;;;;5055230;28;20050;-74
2021/05/19 05:43:04;;;;;;;0.43;0.10;;;11.40;99.90;;;;;;5080219;28;20020;-74
2021/05/19 05:45:30;;;;;;;0.10;0.10;;;11.40;99.90;;;;;;5063020;28;20050;-74
2021/05/19 05:47:57;;;;;;;0.65;0.20;;;11.50;99.90;;;;;;5072425;28;20020;-75
2021/05/19 05:50:23;;;;;;;0.00;0.00;;;11.40;99.90;;;;;;5060851;28;20402;-73
2021/05/19 05:52:49;;;;;;;0.10;0.10;;;11.40;99.90;;;;;;5056092;28;20738;-74
2021/05/19 05:55:15;;;;;;;0.35;0.30;;;11.30;99.90;;;;;;5065316;28;20032;-75
2021/05/19 05:57:42;;;;;;;0.57;0.10;;;11.30;99.90;;;;;;5080186;28;20021;-74
2021/05/19 06:00:11;;;;;;;1.55;0.17;;;11.20;99.90;;;;;;5072788;28;20035;-73
2021/05/19 06:02:37;;;;;;;0.35;0.28;;;11.30;99.90;;;;;;5069756;28;20514;-74
2021/05/19 06:05:03;;;;;;;2.28;0.30;;;11.30;99.90;;;;;;5081010;28;20036;-74
2021/05/19 06:07:28;;;;;;;0.10;0.10;;;11.30;99.90;;;;;;5052574;28;20502;-74
2021/05/19 06:09:54;;;;;;;1.25;0.20;;;11.30;99.90;;;;;;5066506;28;20124;-74
2021/05/19 06:12:20;;;;;;;0.10;0.10;;;11.30;99.90;;;;;;5072167;28;20054;-74
2021/05/19 06:14:46;;;;;;;0.10;0.10;;;11.30;99.90;;;;;;5075325;28;20036;-74
2021/05/19 06:17:14;;;;;;;2.95;0.50;;;11.20;99.90;;;;;;5062107;28;20021;-74
2021/05/19 06:19:40;;;;;;;0.22;0.22;;;11.20;99.90;;;;;;5075124;28;20054;-74
2021/05/19 06:22:07;;;;;;;0.03;0.03;;;11.30;99.90;;;;;;5070214;28;20033;-74
2021/05/19 06:24:33;;;;;;;0.10;0.10;;;11.20;99.90;;;;;;5068944;28;20440;-73
2021/05/19 06:26:59;;;;;;;1.50;0.30;;;11.10;99.90;;;;;;5061959;28;20036;-74
2021/05/19 06:29:24;;;;;;;2.72;1.10;;;11.00;99.90;;;;;;5065865;28;20562;-74
2021/05/19 06:31:50;;;;;;;0.30;0.30;;;11.00;99.90;;;;;;5059206;28;20023;-74
2021/05/19 06:34:16;;;;;;;0.30;0.17;;;11.00;99.90;;;;;;5057747;28;20441;-72
2021/05/19 06:36:46;;;;;;;3.72;0.35;;;11.00;99.90;;;;;;5075641;28;20032;-76
2021/05/19 06:39:17;;;;;;;1.88;0.32;;;10.90;99.90;;;;;;5078097;28;20551;-76
2021/05/19 06:41:45;;;;;;;0.10;0.10;;;10.80;99.90;;;;;;5075310;28;20025;-74
2021/05/19 06:44:13;;;;;;;0.15;0.15;;;10.80;99.90;;;;;;5055853;28;20390;-74
2021/05/19 06:46:39;;;;;;;0.10;0.10;;;10.70;99.90;;;;;;5058499;28;20032;-75
2021/05/19 06:49:05;;;;;;;0.10;0.10;;;10.80;99.90;;;;;;5077394;28;20108;-75
2021/05/19 06:51:31;;;;;;;0.10;0.10;;;10.90;99.90;;;;;;5060207;28;20032;-75
2021/05/19 06:53:57;;;;;;;3.33;0.40;;;10.90;99.90;;;;;;5070211;28;20080;-74
2021/05/19 06:56:24;;;;;;;0.93;0.25;;;10.90;99.90;;;;;;5071625;28;20112;-75
2021/05/19 06:58:50;;;;;;;0.43;0.30;;;10.80;99.90;;;;;;5081456;28;20047;-73
2021/05/19 07:01:15;;;;;;;2.45;0.17;;;10.80;99.90;;;;;;5080279;28;20482;-73
2021/05/19 07:03:41;;;;;;;0.35;0.20;;;10.70;99.90;;;;;;5073050;28;20044;-73
2021/05/19 07:06:07;;;;;;;2.88;0.30;;;10.70;99.90;;;;;;5063690;28;20028;-72
2021/05/19 07:08:33;;;;;;;0.28;0.10;;;10.70;99.90;;;;;;5072910;28;20025;-73
2021/05/19 07:10:58;;;;;;;3.85;0.22;;;10.70;99.90;;;;;;5092101;28;20136;-73
2021/05/19 07:13:28;;;;;;;0.52;0.20;;;10.70;99.90;;;;;;5067280;28;20024;-73
2021/05/19 07:15:55;;;;;;;0.25;0.10;;;10.80;99.90;;;;;;5080593;28;20024;-73
2021/05/19 07:18:21;;;;;;;0.10;0.10;;;10.80;99.90;;;;;;5089035;28;20020;-73
2021/05/19 07:20:48;;;;;;;0.73;0.17;;;10.80;99.90;;;;;;5066598;28;20070;-72
2021/05/19 07:23:14;;;;;;;0.40;0.40;;;10.80;99.90;;;;;;5072250;28;20024;-73
2021/05/19 07:25:40;;;;;;;0.30;0.30;;;10.80;99.90;;;;;;5067431;28;20017;-73
2021/05/19 07:28:08;;;;;;;0.20;0.20;;;10.80;99.90;;;;;;5073579;28;20017;-73
2021/05/19 07:30:34;;;;;;;2.28;0.30;;;10.70;99.90;;;;;;5062228;28;20486;-75
2021/05/19 07:33:00;;;;;;;8.07;0.30;;;10.70;99.90;;;;;;5069834;28;20020;-73
2021/05/19 07:35:26;;;;;;;0.35;0.20;;;10.70;99.90;;;;;;5081777;28;20027;-73
2021/05/19 07:37:53;;;;;;;0.22;0.22;;;10.70;99.90;;;;;;5058893;28;20028;-74
2021/05/19 07:40:20;;;;;;;1.75;0.40;;;10.70;99.90;;;;;;5059083;28;20032;-74
2021/05/19 07:42:46;;;;;;;0.15;0.15;;;10.70;99.90;;;;;;5059843;28;20024;-72
2021/05/19 07:45:12;;;;;;;0.30;0.30;;;10.60;99.90;;;;;;5068476;28;20044;-72
2021/05/19 07:47:38;;;;;;;0.50;0.25;;;10.60;99.90;;;;;;5069337;28;20025;-73
2021/05/19 07:50:05;;;;;;;0.30;0.30;;;10.60;99.90;;;;;;5054071;28;20486;-74
2021/05/19 07:52:54;;;;;;;0.10;0.10;;;10.60;99.90;;;;;;5067700;28;20024;-75
2021/05/19 07:58:34;;;;;;;0.45;0.20;;;10.60;99.90;;;;;;5079242;28;20032;-73
2021/05/19 08:03:44;;;;;;;0.10;0.10;;;10.70;99.90;;;;;;5072756;28;20043;-73
2021/05/19 08:06:10;;;;;;;0.22;0.20;;;10.70;99.90;;;;;;5058892;28;20016;-73
2021/05/19 08:08:36;;;;;;;0.20;0.20;;;10.60;99.90;;;;;;5065438;28;20135;-73
2021/05/19 08:11:02;;;;;;;0.30;0.30;;;10.70;99.90;;;;;;5065856;28;20036;-74
2021/05/19 08:13:27;;;;;;;2.30;0.20;;;10.80;99.90;;;;;;5059893;28;20615;-73
2021/05/19 08:15:53;;;;;;;0.20;0.20;;;10.80;99.90;;;;;;5056271;28;20517;-72
2021/05/19 08:18:23;;;;;;;0.10;0.10;;;10.80;99.90;;;;;;5072792;28;20028;-74
2021/05/19 08:20:49;;;;;;;0.57;0.10;;;10.80;99.90;;;;;;5072059;28;20039;-73
2021/05/19 08:23:16;;;;;;;1.02;0.40;;;10.80;99.90;;;;;;5064620;28;20154;-69
2021/05/19 08:25:44;;;;;;;0.40;0.35;;;10.90;99.90;;;;;;5080064;28;20024;-66
2021/05/19 08:28:13;;;;;;;0.20;0.20;;;10.90;99.90;;;;;;5076939;28;20023;-67
2021/05/19 08:30:39;;;;;;;0.38;0.22;;;10.90;99.90;;;;;;5100789;28;20082;-70
2021/05/19 08:33:10;;;;;;;0.10;0.10;;;10.90;99.90;;;;;;5057309;28;20033;-72
2021/05/19 08:35:37;;;;;;;1.27;0.20;;;10.80;99.90;;;;;;5053182;28;20032;-71
2021/05/19 08:38:03;;;;;;;2.50;0.25;;;10.80;99.90;;;;;;5075235;28;20481;-72
2021/05/19 08:40:29;;;;;;;0.45;0.35;;;10.80;99.90;;;;;;5054657;28;20114;-73
2021/05/19 08:42:56;;;;;;;1.15;0.30;;;10.80;99.90;;;;;;5069566;28;20043;-73
2021/05/19 08:45:22;;;;;;;1.73;1.25;;;10.80;99.90;;;;;;5052420;28;20028;-73
2021/05/19 08:47:56;;;;;;;0.50;0.38;;;10.80;99.90;;;;;;5072636;28;20047;-75
2021/05/19 08:50:25;;;;;;;0.15;0.15;;;10.80;99.90;;;;;;5078688;28;20028;-76
2021/05/19 08:52:51;;;;;;;0.25;0.20;;;10.80;99.90;;;;;;5071408;28;20077;-74
2021/05/19 08:55:20;;;;;;;2.17;0.30;;;10.80;99.90;;;;;;5075097;28;20024;-75
2021/05/19 08:57:47;;;;;;;0.55;0.25;;;10.80;99.90;;;;;;5076665;28;20076;-75
2021/05/19 09:00:14;;;;;;;0.10;0.10;;;10.80;99.90;;;;;;5051801;28;20024;-75
2021/05/19 09:02:40;;;;;;;1.25;0.30;;;10.80;99.90;;;;;;5059876;28;20516;-74
2021/05/19 09:05:07;;;;;;;1.10;0.20;;;10.80;99.90;;;;;;5080606;28;20036;-74
2021/05/19 09:07:36;;;;;;;1.45;0.20;;;10.90;99.90;;;;;;5060102;28;20024;-76
2021/05/19 09:10:16;;;;;;;0.70;0.22;;;10.90;99.90;;;;;;5056422;28;20116;-75
2021/05/19 09:12:42;;;;;;;3.47;0.45;;;10.90;99.90;;;;;;5071762;28;20116;-73
2021/05/19 09:15:08;;;;;;;0.22;0.20;;;10.90;99.90;;;;;;5076987;28;20510;-75
2021/05/19 09:17:38;;;;;;;0.20;0.10;;;10.90;99.90;;;;;;5061874;28;20035;-75
2021/05/19 09:20:11;;;;;;;0.65;0.40;;;10.90;99.90;;;;;;5070671;28;20028;-75
2021/05/19 09:22:39;;;;;;;0.05;0.05;;;10.90;99.90;;;;;;5052518;28;20024;-75
2021/05/19 09:25:17;;;;;;;1.35;0.20;;;10.90;99.90;;;;;;5069788;28;20024;-73
2021/05/19 09:27:45;;;;;;;0.13;0.10;;;10.90;99.90;;;;;;5053703;28;20079;-73
2021/05/19 09:30:12;;;;;;;0.15;0.15;;;10.90;99.90;;;;;;5077553;28;20024;-74
2021/05/19 09:32:40;;;;;;;1.85;1.02;;;11.00;99.90;;;;;;5077667;28;20024;-75
2021/05/19 09:35:10;;;;;;;1.42;0.30;;;11.00;99.90;;;;;;5061319;28;20371;-75
2021/05/19 09:37:37;;;;;;;0.40;0.32;;;11.00;99.90;;;;;;5075312;28;20020;-76
2021/05/19 09:40:05;;;;;;;0.82;0.40;;;11.00;99.90;;;;;;5063478;28;20032;-73
2021/05/19 09:42:34;;;;;;;1.17;0.50;;;11.00;99.90;;;;;;5075616;28;20024;-75
2021/05/19 09:45:14;;;;;;;0.30;0.30;;;11.10;99.90;;;;;;5061753;28;20032;-75
2021/05/19 09:47:42;;;;;;;0.25;0.25;;;11.10;99.90;;;;;;5053264;28;20028;-74
2021/05/19 09:50:11;;;;;;;0.85;0.50;;;11.10;99.90;;;;;;5053528;28;20441;-75
2021/05/19 09:52:36;;;;;;;0.40;0.30;;;11.10;99.90;;;;;;5058112;28;20032;-74
2021/05/19 09:55:10;;;;;;;0.60;0.60;;;11.10;99.90;;;;;;5072937;28;20043;-74
2021/05/19 09:57:44;;;;;;;0.20;0.20;;;11.00;99.90;;;;;;5074084;28;20114;-74
2021/05/19 10:00:12;;;;;;;0.30;0.30;;;11.00;99.90;;;;;;5072305;28;20046;-76
2021/05/19 10:02:40;;;;;;;1.05;0.50;;;11.00;99.90;;;;;;5078513;28;20021;-75
2021/05/19 10:05:17;;;;;;;0.35;0.30;;;11.00;99.90;;;;;;5080797;28;20028;-75
2021/05/19 10:07:42;;;;;;;0.75;0.73;;;11.00;99.90;;;;;;5057956;28;20115;-70
2021/05/19 10:10:08;;;;;;;3.47;1.00;;;11.20;99.90;;;;;;5069310;28;20139;-67
2021/05/19 10:12:38;;;;;;;0.43;0.43;;;11.30;99.90;;;;;;5059129;28;20023;-67
2021/05/19 10:15:10;;;;;;;0.50;0.32;;;11.20;99.90;;;;;;5073543;28;20027;-68
2021/05/19 10:17:48;;;;;;;1.60;0.98;;;11.30;99.90;;;;;;5053790;28;20120;-69
2021/05/19 10:20:17;;;;;;;0.40;0.40;;;11.20;99.90;;;;;;5057699;28;21749;-68
2021/05/19 10:22:48;;;;;;;2.33;0.60;;;11.20;99.90;;;;;;5065462;28;20033;-65
2021/05/19 10:25:35;;;;;;;0.50;0.50;;;11.20;99.90;;;;;;5065139;28;20040;-65
2021/05/19 10:28:03;;;;;;;0.40;0.40;;;11.10;99.90;;;;;;5066534;28;20063;-68
2021/05/19 10:30:31;;;;;;;2.70;0.30;;;11.10;99.90;;;;;;5060976;28;20509;-76
2021/05/19 10:32:57;;;;;;;3.05;0.75;;;11.00;99.90;;;;;;5077517;28;20032;-75
2021/05/19 10:35:32;;;;;;;5.38;1.40;;;10.90;99.90;;;;;;5081752;28;20047;-74
2021/05/19 10:38:16;;;;;;;0.30;0.30;;;10.90;99.90;;;;;;5081473;28;20024;-76
2021/05/19 10:40:54;;;;;;;0.30;0.28;;;10.70;99.90;;;;;;5080875;28;20029;-75
2021/05/19 10:43:20;;;;;;;0.43;0.40;;;10.70;99.90;;;;;;5069537;28;20032;-75
2021/05/19 10:45:59;;;;;;;0.95;0.73;;;10.70;99.90;;;;;;5074859;28;20055;-73
2021/05/19 10:48:33;;;;;;;0.88;0.50;;;10.70;99.90;;;;;;5052570;28;20226;-74
2021/05/19 10:51:28;;;;;;;0.65;0.40;;;10.70;99.90;;;;;;5060710;28;20025;-74
2021/05/19 11:00:11;;;;;;;1.05;0.60;;;10.80;99.90;;;;;;5071995;28;20047;-72
2021/05/19 11:03:00;;;;;;;0.82;0.63;;;10.70;99.90;;;;;;5054979;28;20028;-73
2021/05/19 11:05:32;;;;;;;1.13;0.55;;;10.80;99.90;;;;;;5075856;28;20486;-72
2021/05/19 11:08:07;;;;;;;0.70;0.70;;;10.80;99.90;;;;;;5078383;28;20104;-74
2021/05/19 11:10:37;;;;;;;1.95;0.30;;;10.90;99.90;;;;;;5088685;28;20042;-73
2021/05/19 11:13:03;;;;;;;0.50;0.50;;;10.80;99.90;;;;;;5090127;28;20027;-73
2021/05/19 11:21:17;;;;;;;1.42;1.33;;;10.70;99.90;;;;;;5070429;28;20081;-71
2021/05/19 11:24:11;;;;;;;1.02;0.88;;;10.80;99.90;;;;;;5058640;28;20036;-73
2021/05/19 11:26:42;;;;;;;0.90;0.63;;;10.90;99.90;;;;;;5073430;28;20115;-72
2021/05/19 11:29:10;;;;;;;0.98;0.45;;;10.90;99.90;;;;;;5057052;28;20102;-71
2021/05/19 11:31:47;;;;;;;0.70;0.70;;;10.90;99.90;;;;;;5049088;28;20040;-72
2021/05/19 11:34:15;;;;;;;4.47;1.73;;;11.00;99.90;;;;;;5068236;28;20386;-72
2021/05/19 11:36:49;;;;;;;1.10;1.00;;;10.90;99.90;;;;;;5080716;28;20020;-71
2021/05/19 11:39:26;;;;;;;0.93;0.82;;;10.90;99.90;;;;;;5080578;28;20551;-72
2021/05/19 11:42:10;;;;;;;1.67;0.70;;;11.00;99.90;;;;;;5080015;28;20067;-72
2021/05/19 11:44:49;;;;;;;1.00;0.60;;;11.10;99.90;;;;;;5068850;28;20050;-72
2021/05/19 11:47:20;;;;;;;0.68;0.50;;;11.00;99.90;;;;;;5063573;28;20112;-71
2021/05/19 11:49:46;;;;;;;0.70;0.70;;;11.00;99.90;;;;;;5067282;28;20031;-72
2021/05/19 11:52:14;;;;;;;2.08;1.17;;;11.00;99.90;;;;;;5064598;28;20021;-71
2021/05/19 11:54:42;;;;;;;3.88;1.90;;;11.10;99.90;;;;;;5052825;28;20024;-71
2021/05/19 11:57:10;;;;;;;2.70;1.63;;;11.10;99.90;;;;;;5063483;28;20036;-72
2021/05/19 11:59:38;;;;;;;1.00;0.77;;;11.10;99.90;;;;;;5063991;28;20041;-72
2021/05/19 12:02:18;;;;;;;2.35;1.05;;;11.10;99.90;;;;;;5058357;28;20029;-72
2021/05/19 12:04:48;;;;;;;1.13;0.80;;;11.20;99.90;;;;;;5046594;28;20029;-73
2021/05/19 12:07:16;;;;;;;2.38;0.73;;;11.30;99.90;;;;;;5065511;28;20104;-72
2021/05/19 12:09:43;;;;;;;1.63;0.75;;;11.40;99.90;;;;;;5077317;28;20021;-71
2021/05/19 12:12:14;;;;;;;2.13;0.65;;;11.40;99.90;;;;;;5056209;28;20643;-71
2021/05/19 12:14:51;;;;;;;3.78;0.77;;;11.50;99.90;;;;;;5058836;28;20390;-70
2021/05/19 12:17:26;;;;;;;0.98;0.90;;;11.60;99.90;;;;;;5090162;28;20021;-72
2021/05/19 12:19:52;;;;;;;3.38;1.17;;;11.60;99.90;;;;;;5076648;28;20154;-71
2021/05/19 12:22:23;;;;;;;2.25;0.80;;;11.70;99.90;;;;;;5055314;28;20452;-71
2021/05/19 12:24:52;;;;;;;2.15;1.50;;;11.80;99.90;;;;;;5072416;28;20359;-70
2021/05/19 12:27:21;;;;;;;2.50;1.05;;;11.80;99.90;;;;;;5075933;28;20039;-74
2021/05/19 12:30:11;;;;;;;0.85;0.70;;;12.00;99.90;;;;;;5069988;28;20020;-74
2021/05/19 12:32:52;;;;;;;2.58;0.47;;;12.10;99.90;;;;;;5073955;28;20024;-74
2021/05/19 12:35:18;;;;;;;0.80;0.55;;;12.00;99.90;;;;;;5075748;28;20028;-73
2021/05/19 12:37:53;;;;;;;2.92;0.50;;;12.10;99.90;;;;;;5049528;28;20027;-73
2021/05/19 12:40:24;;;;;;;0.70;0.70;;;12.20;99.90;;;;;;5049301;28;20032;-73
2021/05/19 12:43:00;;;;;;;0.82;0.82;;;12.20;99.90;;;;;;5054727;28;20029;-74
2021/05/19 12:45:30;;;;;;;0.47;0.43;;;12.20;99.90;;;;;;5065908;28;20028;-72
2021/05/19 12:48:15;;;;;;;0.60;0.60;;;12.30;99.90;;;;;;5066311;28;20028;-72
2021/05/19 12:50:51;;;;;;;0.55;0.47;;;12.40;99.90;;;;;;5079819;28;20387;-72
2021/05/19 12:53:38;;;;;;;1.42;0.60;;;12.50;99.90;;;;;;5075984;28;20157;-72
2021/05/19 12:56:07;;;;;;;0.50;0.50;;;12.60;99.90;;;;;;5070125;28;20024;-71
2021/05/19 12:59:00;;;;;;;0.47;0.47;;;12.60;99.90;;;;;;5053151;28;20038;-73
2021/05/19 13:01:30;;;;;;;;;;;12.70;99.90;;;;;;5051039;28;20398;-72
2021/05/19 13:03:59;;;;;;;0.28;0.28;;;12.90;99.90;;;;;;5096717;28;20360;-72
2021/05/19 13:06:29;;;;;;;0.60;0.60;;;13.20;99.90;;;;;;5063572;28;20347;-71
2021/05/19 13:09:03;;;;;;;2.50;0.40;;;13.40;99.90;;;;;;5079149;28;20024;-73
2021/05/19 13:11:30;;;;;;;1.30;0.40;;;13.90;99.90;;;;;;5062975;28;20031;-71
2021/05/19 13:13:57;;;;;;;0.82;0.50;;;14.40;99.90;;;;;;5047805;28;20029;-72
2021/05/19 13:16:26;;;;;;;0.47;0.40;;;14.80;99.90;;;;;;5053811;28;20035;-71
2021/05/19 13:18:57;;;;;;;0.57;0.47;;;15.20;99.90;;;;;;5057972;28;20070;-72